sensor_id;sensor_type;location;lat;lon;timestamp;pressure;altitude;pressure_sealevel;temperature;humidity
66547;BME280;53400;50.364;14.874;2023-02-12T00:00:30;100255.69;;;3.12;100.00
66547;BME280;53400;50.364;14.874;2023-02-12T00:03:17;100256.50;;;3.12;100.00
66547;BME280;53400;50.364;14.874;2023-02-12T00:05:43;100260.81;;;3.13;100.00
66547;BME280;53400;50.364;14.874;2023-02-12T00:08:09;100258.16;;;3.13;100.00
66547;BME280;53400;50.364;14.874;2023-02-12T00:10:39;100249.81;;;3.00;100.00
66547;BME280;53400;50.364;14.874;2023-02-12T00:13:06;100246.91;;;3.11;100.00
66547;BME280;53400;50.364;14.874;2023-02-12T00:15:32;100254.03;;;3.11;100.00
66547;BME280;53400;50.364;14.874;2023-02-12T00:17:59;100254.97;;;3.02;100.00
66547;BME280;53400;50.364;14.874;2023-02-12T00:20:26;100264.63;;;3.11;100.00
66547;BME280;53400;50.364;14.874;2023-02-12T00:22:52;100259.97;;;3.13;100.00
66547;BME280;53400;50.364;14.874;2023-02-12T00:25:18;100265.44;;;3.11;100.00
66547;BME280;53400;50.364;14.874;2023-02-12T00:27:44;100268.53;;;3.07;100.00
66547;BME280;53400;50.364;14.874;2023-02-12T00:30:10;100272.25;;;3.14;100.00
66547;BME280;53400;50.364;14.874;2023-02-12T00:32:36;100268.41;;;3.08;100.00
66547;BME280;53400;50.364;14.874;2023-02-12T00:35:02;100265.66;;;3.18;100.00
66547;BME280;53400;50.364;14.874;2023-02-12T00:37:30;100273.84;;;3.07;100.00
66547;BME280;53400;50.364;14.874;2023-02-12T00:39:56;100269.28;;;3.17;100.00
66547;BME280;53400;50.364;14.874;2023-02-12T00:42:24;100274.09;;;3.21;100.00
66547;BME280;53400;50.364;14.874;2023-02-12T00:44:50;100269.28;;;3.17;100.00
66547;BME280;53400;50.364;14.874;2023-02-12T00:47:17;100269.38;;;3.07;100.00
66547;BME280;53400;50.364;14.874;2023-02-12T00:49:43;100276.50;;;3.07;100.00
66547;BME280;53400;50.364;14.874;2023-02-12T00:52:10;100275.72;;;3.14;100.00
66547;BME280;53400;50.364;14.874;2023-02-12T00:54:37;100278.31;;;3.06;100.00
66547;BME280;53400;50.364;14.874;2023-02-12T00:57:04;100278.31;;;3.06;100.00
66547;BME280;53400;50.364;14.874;2023-02-12T00:59:31;100279.03;;;3.16;100.00
66547;BME280;53400;50.364;14.874;2023-02-12T01:01:58;100276.75;;;3.21;100.00
66547;BME280;53400;50.364;14.874;2023-02-12T01:04:24;100283.03;;;3.20;100.00
66547;BME280;53400;50.364;14.874;2023-02-12T01:06:50;100286.41;;;3.05;100.00
66547;BME280;53400;50.364;14.874;2023-02-12T01:09:17;100280.66;;;3.09;100.00
66547;BME280;53400;50.364;14.874;2023-02-12T01:11:45;100294.91;;;3.16;100.00
66547;BME280;53400;50.364;14.874;2023-02-12T01:14:11;100287.44;;;3.12;100.00
66547;BME280;53400;50.364;14.874;2023-02-12T01:16:37;100287.81;;;3.17;100.00
66547;BME280;53400;50.364;14.874;2023-02-12T01:19:04;100291.59;;;3.14;100.00
66547;BME280;53400;50.364;14.874;2023-02-12T01:21:32;100291.13;;;3.19;100.00
66547;BME280;53400;50.364;14.874;2023-02-12T01:24:00;100293.56;;;3.12;100.00
66547;BME280;53400;50.364;14.874;2023-02-12T01:26:28;100285.19;;;3.17;100.00
66547;BME280;53400;50.364;14.874;2023-02-12T01:28:58;100283.91;;;3.29;100.00
66547;BME280;53400;50.364;14.874;2023-02-12T01:31:28;100290.66;;;3.24;100.00
66547;BME280;53400;50.364;14.874;2023-02-12T01:33:56;100289.84;;;3.23;100.00
66547;BME280;53400;50.364;14.874;2023-02-12T01:36:24;100293.47;;;3.22;100.00
66547;BME280;53400;50.364;14.874;2023-02-12T01:38:50;100302.78;;;3.34;100.00
66547;BME280;53400;50.364;14.874;2023-02-12T01:41:20;100304.28;;;3.29;100.00
66547;BME280;53400;50.364;14.874;2023-02-12T01:44:09;100297.00;;;3.31;100.00
66547;BME280;53400;50.364;14.874;2023-02-12T01:46:38;100299.44;;;3.24;100.00
66547;BME280;53400;50.364;14.874;2023-02-12T01:49:13;100297.50;;;3.34;100.00
66547;BME280;53400;50.364;14.874;2023-02-12T01:51:42;100290.72;;;3.32;100.00
66547;BME280;53400;50.364;14.874;2023-02-12T01:54:11;100293.88;;;3.35;100.00
66547;BME280;53400;50.364;14.874;2023-02-12T01:56:38;100292.75;;;3.46;100.00
66547;BME280;53400;50.364;14.874;2023-02-12T01:59:05;100299.56;;;3.49;100.00
66547;BME280;53400;50.364;14.874;2023-02-12T02:01:34;100302.22;;;3.49;100.00
66547;BME280;53400;50.364;14.874;2023-02-12T02:04:03;100304.03;;;3.48;100.00
66547;BME280;53400;50.364;14.874;2023-02-12T02:06:33;100312.00;;;3.48;100.00
66547;BME280;53400;50.364;14.874;2023-02-12T02:09:00;100308.41;;;3.57;100.00
66547;BME280;53400;50.364;14.874;2023-02-12T02:11:27;100320.50;;;3.68;100.00
66547;BME280;53400;50.364;14.874;2023-02-12T02:14:12;100311.22;;;3.64;100.00
66547;BME280;53400;50.364;14.874;2023-02-12T02:17:08;100316.16;;;3.51;100.00
66547;BME280;53400;50.364;14.874;2023-02-12T02:19:58;100310.34;;;3.47;100.00
66547;BME280;53400;50.364;14.874;2023-02-12T02:22:31;100314.63;;;3.48;100.00
66547;BME280;53400;50.364;14.874;2023-02-12T02:25:28;100316.28;;;3.49;100.00
66547;BME280;53400;50.364;14.874;2023-02-12T02:28:09;100315.66;;;3.55;100.00
66547;BME280;53400;50.364;14.874;2023-02-12T02:30:42;100322.09;;;3.53;100.00
66547;BME280;53400;50.364;14.874;2023-02-12T02:33:18;100320.84;;;3.65;100.00
66547;BME280;53400;50.364;14.874;2023-02-12T02:35:52;100322.28;;;3.51;100.00
66547;BME280;53400;50.364;14.874;2023-02-12T02:38:25;100324.59;;;3.54;100.00
66547;BME280;53400;50.364;14.874;2023-02-12T02:40:59;100323.59;;;3.55;100.00
66547;BME280;53400;50.364;14.874;2023-02-12T02:43:30;100325.69;;;3.43;100.00
66547;BME280;53400;50.364;14.874;2023-02-12T02:46:02;100325.88;;;3.42;100.00
66547;BME280;53400;50.364;14.874;2023-02-12T02:48:34;100326.38;;;3.45;100.00
66547;BME280;53400;50.364;14.874;2023-02-12T02:51:04;100327.81;;;3.40;100.00
66547;BME280;53400;50.364;14.874;2023-02-12T02:53:34;100330.13;;;3.35;100.00
66547;BME280;53400;50.364;14.874;2023-02-12T02:56:06;100327.81;;;3.40;100.00
66547;BME280;53400;50.364;14.874;2023-02-12T02:58:36;100324.56;;;3.46;100.00
66547;BME280;53400;50.364;14.874;2023-02-12T03:01:09;100326.38;;;3.45;100.00
66547;BME280;53400;50.364;14.874;2023-02-12T03:03:41;100328.00;;;3.38;100.00
66547;BME280;53400;50.364;14.874;2023-02-12T03:06:14;100333.84;;;3.24;100.00
66547;BME280;53400;50.364;14.874;2023-02-12T03:08:47;100336.56;;;3.32;100.00
66547;BME280;53400;50.364;14.874;2023-02-12T03:11:18;100328.97;;;3.37;100.00
66547;BME280;53400;50.364;14.874;2023-02-12T03:13:48;100327.31;;;3.36;100.00
66547;BME280;53400;50.364;14.874;2023-02-12T03:16:21;100327.31;;;3.36;100.00
66547;BME280;53400;50.364;14.874;2023-02-12T03:18:51;100333.44;;;3.37;100.00
66547;BME280;53400;50.364;14.874;2023-02-12T03:21:23;100329.19;;;3.44;100.00
66547;BME280;53400;50.364;14.874;2023-02-12T03:23:56;100333.19;;;3.48;100.00
66547;BME280;53400;50.364;14.874;2023-02-12T03:26:33;100347.44;;;3.47;100.00
66547;BME280;53400;50.364;14.874;2023-02-12T03:29:03;100339.00;;;3.52;100.00
66547;BME280;53400;50.364;14.874;2023-02-12T03:31:36;100339.78;;;3.44;100.00
66547;BME280;53400;50.364;14.874;2023-02-12T03:34:12;100342.28;;;3.45;100.00
66547;BME280;53400;50.364;14.874;2023-02-12T03:36:47;100357.53;;;3.52;100.00
66547;BME280;53400;50.364;14.874;2023-02-12T03:39:24;100365.53;;;3.60;100.00
66547;BME280;53400;50.364;14.874;2023-02-12T03:42:00;100367.19;;;3.61;100.00
66547;BME280;53400;50.364;14.874;2023-02-12T03:44:36;100364.59;;;3.69;100.00
66547;BME280;53400;50.364;14.874;2023-02-12T03:47:14;100374.38;;;3.68;100.00
66547;BME280;53400;50.364;14.874;2023-02-12T03:49:51;100373.81;;;3.65;100.00
66547;BME280;53400;50.364;14.874;2023-02-12T03:52:21;100380.63;;;3.67;100.00
66547;BME280;53400;50.364;14.874;2023-02-12T03:54:48;100380.06;;;3.56;100.00
66547;BME280;53400;50.364;14.874;2023-02-12T03:57:17;100387.25;;;3.63;100.00
66547;BME280;53400;50.364;14.874;2023-02-12T03:59:45;100378.19;;;3.74;100.00
66547;BME280;53400;50.364;14.874;2023-02-12T04:02:14;100388.19;;;3.54;100.00
66547;BME280;53400;50.364;14.874;2023-02-12T04:04:43;100388.38;;;3.61;100.00
66547;BME280;53400;50.364;14.874;2023-02-12T04:07:12;100396.81;;;3.56;100.00
66547;BME280;53400;50.364;14.874;2023-02-12T04:09:39;100392.53;;;3.37;100.00
66547;BME280;53400;50.364;14.874;2023-02-12T04:12:22;100393.38;;;3.38;100.00
66547;BME280;53400;50.364;14.874;2023-02-12T04:14:55;100386.06;;;3.32;100.00
66547;BME280;53400;50.364;14.874;2023-02-12T04:17:35;100390.56;;;3.39;100.00
66547;BME280;53400;50.364;14.874;2023-02-12T04:20:11;100391.69;;;3.37;100.00
66547;BME280;53400;50.364;14.874;2023-02-12T04:22:48;100397.91;;;3.45;100.00
66547;BME280;53400;50.364;14.874;2023-02-12T04:25:27;100407.59;;;3.37;100.00
66547;BME280;53400;50.364;14.874;2023-02-12T04:28:08;100410.06;;;3.56;100.00
66547;BME280;53400;50.364;14.874;2023-02-12T04:30:39;100411.31;;;3.44;100.00
66547;BME280;53400;50.364;14.874;2023-02-12T04:33:10;100418.94;;;3.73;100.00
66547;BME280;53400;50.364;14.874;2023-02-12T04:35:43;100421.94;;;3.52;100.00
66547;BME280;53400;50.364;14.874;2023-02-12T04:38:17;100421.91;;;3.44;100.00
66547;BME280;53400;50.364;14.874;2023-02-12T04:40:45;100422.03;;;3.42;100.00
66547;BME280;53400;50.364;14.874;2023-02-12T04:43:13;100432.13;;;3.39;100.00
66547;BME280;53400;50.364;14.874;2023-02-12T04:45:39;100431.50;;;3.45;100.00
66547;BME280;53400;50.364;14.874;2023-02-12T04:48:06;100427.44;;;3.33;100.00
66547;BME280;53400;50.364;14.874;2023-02-12T04:50:39;100436.09;;;3.43;100.00
66547;BME280;53400;50.364;14.874;2023-02-12T04:53:05;100430.59;;;3.36;100.00
66547;BME280;53400;50.364;14.874;2023-02-12T04:55:32;100434.75;;;3.39;100.00
66547;BME280;53400;50.364;14.874;2023-02-12T04:57:58;100439.84;;;3.32;100.00
66547;BME280;53400;50.364;14.874;2023-02-12T05:00:24;100447.09;;;3.48;100.00
66547;BME280;53400;50.364;14.874;2023-02-12T05:02:49;100451.41;;;3.31;100.00
66547;BME280;53400;50.364;14.874;2023-02-12T05:05:16;100449.31;;;3.35;100.00
66547;BME280;53400;50.364;14.874;2023-02-12T05:07:44;100447.03;;;3.22;100.00
66547;BME280;53400;50.364;14.874;2023-02-12T05:10:10;100445.75;;;3.26;100.00
66547;BME280;53400;50.364;14.874;2023-02-12T05:12:36;100445.69;;;3.18;100.00
66547;BME280;53400;50.364;14.874;2023-02-12T05:15:02;100452.72;;;3.09;100.00
66547;BME280;53400;50.364;14.874;2023-02-12T05:17:28;100456.78;;;3.21;100.00
66547;BME280;53400;50.364;14.874;2023-02-12T05:19:54;100454.06;;;3.13;100.00
66547;BME280;53400;50.364;14.874;2023-02-12T05:22:19;100456.72;;;3.13;100.00
66547;BME280;53400;50.364;14.874;2023-02-12T05:24:47;100453.53;;;3.10;100.00
66547;BME280;53400;50.364;14.874;2023-02-12T05:27:13;100452.94;;;3.16;100.00
66547;BME280;53400;50.364;14.874;2023-02-12T05:29:39;100459.00;;;3.08;100.00
66547;BME280;53400;50.364;14.874;2023-02-12T05:32:05;100458.69;;;3.29;100.00
66547;BME280;53400;50.364;14.874;2023-02-12T05:34:32;100473.91;;;3.27;100.00
66547;BME280;53400;50.364;14.874;2023-02-12T05:36:58;100468.16;;;3.14;100.00
66547;BME280;53400;50.364;14.874;2023-02-12T05:39:24;100466.63;;;3.29;100.00
66547;BME280;53400;50.364;14.874;2023-02-12T05:41:51;100472.06;;;3.28;100.00
66547;BME280;53400;50.364;14.874;2023-02-12T05:44:17;100467.00;;;3.34;100.00
66547;BME280;53400;50.364;14.874;2023-02-12T05:46:42;100476.06;;;3.50;100.00
66547;BME280;53400;50.364;14.874;2023-02-12T05:49:09;100478.50;;;3.25;100.00
66547;BME280;53400;50.364;14.874;2023-02-12T05:51:35;100475.94;;;3.15;100.00
66547;BME280;53400;50.364;14.874;2023-02-12T05:54:04;100482.97;;;3.25;100.00
66547;BME280;53400;50.364;14.874;2023-02-12T05:56:31;100486.09;;;3.20;100.00
66547;BME280;53400;50.364;14.874;2023-02-12T05:59:00;100492.50;;;3.17;100.00
66547;BME280;53400;50.364;14.874;2023-02-12T06:01:29;100484.41;;;3.01;100.00
66547;BME280;53400;50.364;14.874;2023-02-12T06:03:57;100500.22;;;2.93;100.00
66547;BME280;53400;50.364;14.874;2023-02-12T06:06:23;100494.69;;;3.04;100.00
66547;BME280;53400;50.364;14.874;2023-02-12T06:08:49;100492.88;;;3.05;100.00
66547;BME280;53400;50.364;14.874;2023-02-12T06:11:16;100510.56;;;3.04;100.00
66547;BME280;53400;50.364;14.874;2023-02-12T06:13:43;100510.72;;;3.03;100.00
66547;BME280;53400;50.364;14.874;2023-02-12T06:16:17;100507.78;;;3.06;100.00
66547;BME280;53400;50.364;14.874;2023-02-12T06:18:43;100506.09;;;3.22;100.00
66547;BME280;53400;50.364;14.874;2023-02-12T06:21:09;100511.66;;;3.11;100.00
66547;BME280;53400;50.364;14.874;2023-02-12T06:23:35;100516.69;;;3.22;100.00
66547;BME280;53400;50.364;14.874;2023-02-12T06:26:01;100522.53;;;3.08;100.00
66547;BME280;53400;50.364;14.874;2023-02-12T06:28:27;100521.41;;;3.11;100.00
66547;BME280;53400;50.364;14.874;2023-02-12T06:30:53;100517.59;;;3.13;100.00
66547;BME280;53400;50.364;14.874;2023-02-12T06:33:21;100534.94;;;3.26;100.00
66547;BME280;53400;50.364;14.874;2023-02-12T06:35:46;100528.97;;;3.41;100.00
66547;BME280;53400;50.364;14.874;2023-02-12T06:38:13;100530.19;;;3.29;100.00
66547;BME280;53400;50.364;14.874;2023-02-12T06:40:39;100532.38;;;3.34;100.00
66547;BME280;53400;50.364;14.874;2023-02-12T06:43:05;100540.19;;;3.53;100.00
66547;BME280;53400;50.364;14.874;2023-02-12T06:45:31;100537.28;;;3.47;100.00
66547;BME280;53400;50.364;14.874;2023-02-12T06:47:58;100547.34;;;3.61;100.00
66547;BME280;53400;50.364;14.874;2023-02-12T06:50:25;100545.69;;;3.60;100.00
66547;BME280;53400;50.364;14.874;2023-02-12T06:52:51;100546.75;;;3.49;100.00
66547;BME280;53400;50.364;14.874;2023-02-12T06:55:17;100546.66;;;3.77;100.00
66547;BME280;53400;50.364;14.874;2023-02-12T06:57:43;100550.84;;;3.61;100.00
66547;BME280;53400;50.364;14.874;2023-02-12T07:00:10;100554.06;;;3.91;100.00
66547;BME280;53400;50.364;14.874;2023-02-12T07:02:36;100549.13;;;3.96;100.00
66547;BME280;53400;50.364;14.874;2023-02-12T07:05:03;100557.72;;;4.42;100.00
66547;BME280;53400;50.364;14.874;2023-02-12T07:07:30;100568.31;;;4.42;100.00
66547;BME280;53400;50.364;14.874;2023-02-12T07:09:56;100578.88;;;4.34;100.00
66547;BME280;53400;50.364;14.874;2023-02-12T07:12:22;100576.22;;;4.60;100.00
66547;BME280;53400;50.364;14.874;2023-02-12T07:14:47;100580.72;;;4.68;100.00
66547;BME280;53400;50.364;14.874;2023-02-12T07:17:13;100575.25;;;4.69;100.00
66547;BME280;53400;50.364;14.874;2023-02-12T07:19:39;100579.84;;;4.59;100.00
66547;BME280;53400;50.364;14.874;2023-02-12T07:22:05;100577.06;;;4.34;100.00
66547;BME280;53400;50.364;14.874;2023-02-12T07:24:32;100586.88;;;4.42;100.00
66547;BME280;53400;50.364;14.874;2023-02-12T07:26:59;100584.34;;;4.32;100.00
66547;BME280;53400;50.364;14.874;2023-02-12T07:29:24;100592.50;;;4.39;100.00
66547;BME280;53400;50.364;14.874;2023-02-12T07:31:50;100594.34;;;4.39;100.00
66547;BME280;53400;50.364;14.874;2023-02-12T07:34:16;100592.53;;;4.47;100.00
66547;BME280;53400;50.364;14.874;2023-02-12T07:36:42;100589.03;;;4.73;100.00
66547;BME280;53400;50.364;14.874;2023-02-12T07:39:10;100602.00;;;4.76;100.00
66547;BME280;53400;50.364;14.874;2023-02-12T07:41:38;100592.59;;;4.55;100.00
66547;BME280;53400;50.364;14.874;2023-02-12T07:44:05;100601.94;;;4.59;100.00
66547;BME280;53400;50.364;14.874;2023-02-12T07:46:34;100606.59;;;4.66;100.00
66547;BME280;53400;50.364;14.874;2023-02-12T07:49:02;100602.19;;;4.82;100.00
66547;BME280;53400;50.364;14.874;2023-02-12T07:51:29;100600.13;;;4.68;100.00
66547;BME280;53400;50.364;14.874;2023-02-12T07:53:57;100606.44;;;4.67;100.00
66547;BME280;53400;50.364;14.874;2023-02-12T07:56:27;100606.72;;;4.98;100.00
66547;BME280;53400;50.364;14.874;2023-02-12T07:58:58;100609.75;;;5.03;100.00
66547;BME280;53400;50.364;14.874;2023-02-12T08:01:26;100608.84;;;4.87;100.00
66547;BME280;53400;50.364;14.874;2023-02-12T08:03:52;100612.81;;;4.82;100.00
66547;BME280;53400;50.364;14.874;2023-02-12T08:06:20;100614.66;;;4.56;100.00
66547;BME280;53400;50.364;14.874;2023-02-12T08:08:50;100624.88;;;4.69;100.00
66547;BME280;53400;50.364;14.874;2023-02-12T08:11:16;100621.16;;;4.62;100.00
66547;BME280;53400;50.364;14.874;2023-02-12T08:13:44;100626.00;;;4.66;100.00
66547;BME280;53400;50.364;14.874;2023-02-12T08:16:13;100624.59;;;4.54;100.00
66547;BME280;53400;50.364;14.874;2023-02-12T08:18:40;100628.50;;;4.68;100.00
66547;BME280;53400;50.364;14.874;2023-02-12T08:21:08;100626.03;;;5.09;100.00
66547;BME280;53400;50.364;14.874;2023-02-12T08:23:34;100632.63;;;5.39;100.00
66547;BME280;53400;50.364;14.874;2023-02-12T08:26:09;100628.09;;;5.31;100.00
66547;BME280;53400;50.364;14.874;2023-02-12T08:28:36;100629.75;;;5.32;100.00
66547;BME280;53400;50.364;14.874;2023-02-12T08:31:04;100634.13;;;4.99;100.00
66547;BME280;53400;50.364;14.874;2023-02-12T08:33:31;100634.09;;;4.91;100.00
66547;BME280;53400;50.364;14.874;2023-02-12T08:36:02;100635.78;;;4.66;100.00
66547;BME280;53400;50.364;14.874;2023-02-12T08:38:28;100643.69;;;4.57;100.00
66547;BME280;53400;50.364;14.874;2023-02-12T08:40:55;100635.94;;;4.64;100.00
66547;BME280;53400;50.364;14.874;2023-02-12T08:43:21;100630.50;;;4.66;100.00
66547;BME280;53400;50.364;14.874;2023-02-12T08:45:47;100637.44;;;5.01;100.00
66547;BME280;53400;50.364;14.874;2023-02-12T08:48:13;100643.91;;;5.41;100.00
66547;BME280;53400;50.364;14.874;2023-02-12T08:50:40;100642.31;;;5.81;100.00
66547;BME280;53400;50.364;14.874;2023-02-12T08:53:06;100642.88;;;6.09;100.00
66547;BME280;53400;50.364;14.874;2023-02-12T08:55:32;100653.19;;;6.12;100.00
66547;BME280;53400;50.364;14.874;2023-02-12T08:57:58;100649.34;;;6.23;100.00
66547;BME280;53400;50.364;14.874;2023-02-12T09:00:26;100651.19;;;6.22;100.00
66547;BME280;53400;50.364;14.874;2023-02-12T09:02:51;100646.03;;;6.20;100.00
66547;BME280;53400;50.364;14.874;2023-02-12T09:05:18;100651.38;;;6.12;100.00
66547;BME280;53400;50.364;14.874;2023-02-12T09:07:45;100651.19;;;6.30;100.00
66547;BME280;53400;50.364;14.874;2023-02-12T09:10:11;100657.16;;;6.32;100.00
66547;BME280;53400;50.364;14.874;2023-02-12T09:12:37;100660.16;;;6.13;100.00
66547;BME280;53400;50.364;14.874;2023-02-12T09:15:04;100670.81;;;6.37;100.00
66547;BME280;53400;50.364;14.874;2023-02-12T09:17:30;100677.13;;;6.36;100.00
66547;BME280;53400;50.364;14.874;2023-02-12T09:19:56;100675.63;;;6.42;100.00
66547;BME280;53400;50.364;14.874;2023-02-12T09:22:22;100677.78;;;6.47;100.00
66547;BME280;53400;50.364;14.874;2023-02-12T09:24:50;100684.63;;;6.49;100.00
66547;BME280;53400;50.364;14.874;2023-02-12T09:27:15;100679.09;;;6.67;100.00
66547;BME280;53400;50.364;14.874;2023-02-12T09:29:41;100690.06;;;6.72;100.00
66547;BME280;53400;50.364;14.874;2023-02-12T09:32:07;100691.41;;;6.68;100.00
66547;BME280;53400;50.364;14.874;2023-02-12T09:34:34;100694.25;;;6.66;100.00
66547;BME280;53400;50.364;14.874;2023-02-12T09:37:00;100690.28;;;6.54;100.00
66547;BME280;53400;50.364;14.874;2023-02-12T09:39:26;100691.94;;;6.63;100.00
66547;BME280;53400;50.364;14.874;2023-02-12T09:42:17;100691.53;;;6.91;100.00
66547;BME280;53400;50.364;14.874;2023-02-12T09:44:49;100695.72;;;6.69;100.00
66547;BME280;53400;50.364;14.874;2023-02-12T09:47:23;100698.03;;;6.80;100.00
66547;BME280;53400;50.364;14.874;2023-02-12T09:50:10;100696.06;;;6.74;100.00
66547;BME280;53400;50.364;14.874;2023-02-12T09:52:38;100696.25;;;7.20;100.00
66547;BME280;53400;50.364;14.874;2023-02-12T09:55:05;100689.63;;;7.16;100.00
66547;BME280;53400;50.364;14.874;2023-02-12T09:57:33;100699.00;;;6.96;100.00
66547;BME280;53400;50.364;14.874;2023-02-12T10:00:04;100696.38;;;6.71;100.00
66547;BME280;53400;50.364;14.874;2023-02-12T10:02:34;100703.22;;;6.82;100.00
66547;BME280;53400;50.364;14.874;2023-02-12T10:05:01;100708.28;;;7.16;100.00
66547;BME280;53400;50.364;14.874;2023-02-12T10:10:34;100707.91;;;7.27;100.00
66547;BME280;53400;50.364;14.874;2023-02-12T10:13:07;100710.47;;;7.04;100.00
66547;BME280;53400;50.364;14.874;2023-02-12T10:15:43;100710.19;;;7.39;100.00
66547;BME280;53400;50.364;14.874;2023-02-12T10:18:28;100710.06;;;7.63;99.75
66547;BME280;53400;50.364;14.874;2023-02-12T10:21:05;100703.91;;;7.63;98.00
66547;BME280;53400;50.364;14.874;2023-02-12T10:23:54;100702.34;;;7.76;96.55
66547;BME280;53400;50.364;14.874;2023-02-12T10:26:26;100696.53;;;7.96;99.01
66547;BME280;53400;50.364;14.874;2023-02-12T10:28:57;100703.84;;;8.02;96.45
66547;BME280;53400;50.364;14.874;2023-02-12T10:31:27;100702.19;;;8.01;94.99
66547;BME280;53400;50.364;14.874;2023-02-12T10:33:54;100710.94;;;7.87;96.46
66547;BME280;53400;50.364;14.874;2023-02-12T10:36:31;100703.72;;;7.95;95.08
66547;BME280;53400;50.364;14.874;2023-02-12T10:39:10;100701.34;;;7.77;94.65
66547;BME280;53400;50.364;14.874;2023-02-12T10:41:40;100700.50;;;7.77;94.40
66547;BME280;53400;50.364;14.874;2023-02-12T10:44:10;100708.72;;;7.67;95.41
66547;BME280;53400;50.364;14.874;2023-02-12T10:46:37;100704.00;;;7.77;93.25
66547;BME280;53400;50.364;14.874;2023-02-12T10:49:05;100703.28;;;7.84;94.65
66547;BME280;53400;50.364;14.874;2023-02-12T10:51:46;100705.63;;;7.87;92.88
66547;BME280;53400;50.364;14.874;2023-02-12T10:54:34;100706.31;;;7.80;93.17
66547;BME280;53400;50.364;14.874;2023-02-12T10:57:07;100704.00;;;7.77;96.00
66547;BME280;53400;50.364;14.874;2023-02-12T10:59:35;100702.16;;;7.78;96.00
66547;BME280;53400;50.364;14.874;2023-02-12T11:02:02;100700.31;;;7.78;94.43
66547;BME280;53400;50.364;14.874;2023-02-12T11:04:30;100694.72;;;7.65;94.54
66547;BME280;53400;50.364;14.874;2023-02-12T11:06:58;100696.00;;;7.77;95.10
66547;BME280;53400;50.364;14.874;2023-02-12T11:09:30;100695.19;;;8.00;93.07
66547;BME280;53400;50.364;14.874;2023-02-12T11:11:57;100694.53;;;7.98;92.74
66547;BME280;53400;50.364;14.874;2023-02-12T11:14:23;100697.38;;;7.96;93.20
66547;BME280;53400;50.364;14.874;2023-02-12T11:16:52;100699.06;;;7.97;91.64
66547;BME280;53400;50.364;14.874;2023-02-12T11:19:22;100696.00;;;7.77;94.53
66547;BME280;53400;50.364;14.874;2023-02-12T11:21:49;100702.06;;;7.94;92.90
66547;BME280;53400;50.364;14.874;2023-02-12T11:24:28;100698.84;;;7.99;91.96
66547;BME280;53400;50.364;14.874;2023-02-12T11:27:11;100700.59;;;7.92;93.71
66547;BME280;53400;50.364;14.874;2023-02-12T11:29:37;100687.16;;;8.00;90.82
66547;BME280;53400;50.364;14.874;2023-02-12T11:32:07;100695.06;;;7.93;92.68
66547;BME280;53400;50.364;14.874;2023-02-12T11:34:33;100694.66;;;8.04;92.45
66547;BME280;53400;50.364;14.874;2023-02-12T11:36:59;100698.56;;;7.94;91.75
66547;BME280;53400;50.364;14.874;2023-02-12T11:39:27;100696.94;;;7.85;92.23
66547;BME280;53400;50.364;14.874;2023-02-12T11:41:56;100697.44;;;8.11;89.60
66547;BME280;53400;50.364;14.874;2023-02-12T11:44:25;100703.78;;;8.33;88.08
66547;BME280;53400;50.364;14.874;2023-02-12T11:46:54;100693.03;;;8.18;88.88
66547;BME280;53400;50.364;14.874;2023-02-12T11:49:23;100697.09;;;8.14;88.45
66547;BME280;53400;50.364;14.874;2023-02-12T11:51:50;100696.00;;;8.23;88.20
66547;BME280;53400;50.364;14.874;2023-02-12T11:54:19;100693.91;;;8.19;89.10
66547;BME280;53400;50.364;14.874;2023-02-12T11:56:47;100697.69;;;8.47;86.45
66547;BME280;53400;50.364;14.874;2023-02-12T11:59:30;100703.84;;;8.48;85.50
66547;BME280;53400;50.364;14.874;2023-02-12T12:01:58;100691.50;;;8.24;87.73
66547;BME280;53400;50.364;14.874;2023-02-12T12:04:28;100695.59;;;8.58;86.82
66547;BME280;53400;50.364;14.874;2023-02-12T12:07:01;100691.72;;;8.60;86.02
66547;BME280;53400;50.364;14.874;2023-02-12T12:09:34;100690.38;;;8.79;86.33
66547;BME280;53400;50.364;14.874;2023-02-12T12:12:09;100699.56;;;8.62;87.05
66547;BME280;53400;50.364;14.874;2023-02-12T12:14:41;100698.03;;;8.44;87.99
66547;BME280;53400;50.364;14.874;2023-02-12T12:17:37;100683.81;;;8.82;85.60
66547;BME280;53400;50.364;14.874;2023-02-12T12:20:28;100686.59;;;8.88;84.50
66547;BME280;53400;50.364;14.874;2023-02-12T12:22:59;100686.41;;;8.75;84.56
66547;BME280;53400;50.364;14.874;2023-02-12T12:25:30;100691.97;;;8.27;87.58
66547;BME280;53400;50.364;14.874;2023-02-12T12:28:07;100681.38;;;8.19;88.94
66547;BME280;53400;50.364;14.874;2023-02-12T12:30:49;100677.81;;;8.50;88.79
66547;BME280;53400;50.364;14.874;2023-02-12T12:33:24;100671.16;;;8.46;86.01
66547;BME280;53400;50.364;14.874;2023-02-12T12:36:06;100667.69;;;8.60;80.17
66547;BME280;53400;50.364;14.874;2023-02-12T12:38:42;100672.34;;;8.20;78.22
66547;BME280;53400;50.364;14.874;2023-02-12T12:41:21;100671.63;;;8.26;77.49
66547;BME280;53400;50.364;14.874;2023-02-12T12:44:02;100675.59;;;8.54;77.45
66547;BME280;53400;50.364;14.874;2023-02-12T12:46:42;100670.56;;;8.36;77.76
66547;BME280;53400;50.364;14.874;2023-02-12T12:49:28;100659.63;;;8.45;80.59
66547;BME280;53400;50.364;14.874;2023-02-12T12:52:20;100667.72;;;8.14;84.22
66547;BME280;53400;50.364;14.874;2023-02-12T12:55:06;100653.91;;;7.88;84.90
66547;BME280;53400;50.364;14.874;2023-02-12T12:57:44;100654.56;;;7.90;85.33
66547;BME280;53400;50.364;14.874;2023-02-12T13:00:26;100658.84;;;7.99;84.58